Time;durP1;ratioP1;P1;durP2;ratioP2;P2;SDS_P1;SDS_P2;PMS_P1;PMS_P2;Temp;Humidity;BMP_temperature;BMP_pressure;BME280_temperature;BME280_humidity;BME280_pressure;Samples;Min_cycle;Max_cycle;Signal;HPM_P1;HPM_P2
2021/01/10 00:00:35;;;;;;;16.13;7.90;;;3.00;99.90;;;;;;5082837;28;20200;-79
2021/01/10 00:03:04;;;;;;;15.07;6.97;;;2.90;99.90;;;;;;5082504;28;20180;-81
2021/01/10 00:05:34;;;;;;;20.50;10.50;;;2.90;99.90;;;;;;5081155;28;20196;-79
2021/01/10 00:08:02;;;;;;;9.82;6.50;;;2.80;99.90;;;;;;5079476;28;20192;-79
2021/01/10 00:10:30;;;;;;;8.63;6.07;;;2.80;99.90;;;;;;5082744;28;20180;-80
2021/01/10 00:12:59;;;;;;;15.07;8.45;;;2.80;99.90;;;;;;5086166;28;20196;-78
2021/01/10 00:15:27;;;;;;;12.60;7.93;;;2.80;99.90;;;;;;5085964;28;20215;-80
2021/01/10 00:17:55;;;;;;;11.48;6.00;;;2.70;99.90;;;;;;5092207;28;20256;-79
2021/01/10 00:20:24;;;;;;;20.05;9.23;;;2.70;99.90;;;;;;5096882;28;20196;-77
2021/01/10 00:22:52;;;;;;;12.50;8.68;;;2.90;99.90;;;;;;5093850;28;20177;-77
2021/01/10 00:25:20;;;;;;;18.52;8.68;;;2.90;99.90;;;;;;5093195;28;20204;-78
2021/01/10 00:27:49;;;;;;;12.60;9.98;;;2.80;99.90;;;;;;5089477;28;20176;-79
2021/01/10 00:30:19;;;;;;;11.48;7.88;;;2.80;99.90;;;;;;5091421;28;20188;-78
2021/01/10 00:32:47;;;;;;;14.57;8.38;;;2.90;99.90;;;;;;5093712;28;20202;-79
2021/01/10 00:35:16;;;;;;;6.40;5.32;;;3.00;99.90;;;;;;5089216;28;20267;-78
2021/01/10 00:37:49;;;;;;;12.65;7.68;;;3.00;99.90;;;;;;5088911;28;20196;-80
2021/01/10 00:40:18;;;;;;;15.35;8.82;;;3.00;99.90;;;;;;5090094;28;20219;-77
2021/01/10 00:42:46;;;;;;;18.00;8.75;;;3.10;99.90;;;;;;5090313;28;20172;-79
2021/01/10 00:45:15;;;;;;;12.73;7.32;;;3.10;99.90;;;;;;5089903;28;20231;-80
2021/01/10 00:47:46;;;;;;;12.98;8.77;;;3.00;99.90;;;;;;5085089;28;20188;-80
2021/01/10 00:50:19;;;;;;;12.35;7.88;;;3.00;99.90;;;;;;5086780;28;20177;-79
2021/01/10 00:52:48;;;;;;;13.27;7.05;;;3.00;99.90;;;;;;5085336;28;20210;-79
2021/01/10 00:55:17;;;;;;;13.05;7.43;;;2.90;99.90;;;;;;5086182;28;20207;-78
2021/01/10 00:57:47;;;;;;;13.23;9.38;;;3.00;99.90;;;;;;5083387;28;20230;-79
2021/01/10 01:00:18;;;;;;;13.65;8.65;;;3.00;99.90;;;;;;5084544;28;20188;-79
2021/01/10 01:02:49;;;;;;;12.50;5.97;;;3.10;99.90;;;;;;5089129;28;20168;-79
2021/01/10 01:05:20;;;;;;;14.88;7.60;;;3.00;99.90;;;;;;5092316;28;20275;-78
2021/01/10 01:07:48;;;;;;;10.60;5.50;;;3.10;99.90;;;;;;5089277;28;20200;-78
2021/01/10 01:10:21;;;;;;;9.75;6.90;;;3.20;99.90;;;;;;5090054;28;20172;-80
2021/01/10 01:12:48;;;;;;;15.10;7.70;;;3.10;99.90;;;;;;5093940;28;20204;-78
2021/01/10 01:15:16;;;;;;;9.35;6.15;;;3.10;99.90;;;;;;5095295;28;20219;-77
2021/01/10 01:17:43;;;;;;;16.30;9.55;;;3.00;99.90;;;;;;5097053;28;20212;-76
2021/01/10 01:20:11;;;;;;;12.90;8.05;;;3.00;99.90;;;;;;5095925;28;20184;-78
2021/01/10 01:22:38;;;;;;;14.45;6.13;;;2.90;99.90;;;;;;5097013;28;20172;-78
2021/01/10 01:25:09;;;;;;;12.75;7.88;;;2.90;99.90;;;;;;5097972;28;20207;-75
2021/01/10 01:27:36;;;;;;;14.23;5.70;;;2.90;99.90;;;;;;5096664;28;20187;-79
2021/01/10 01:30:04;;;;;;;12.38;6.65;;;2.90;99.90;;;;;;5083716;28;20234;-77
2021/01/10 01:32:34;;;;;;;16.45;8.90;;;2.80;99.90;;;;;;5080365;28;20196;-77
2021/01/10 01:35:03;;;;;;;17.75;8.70;;;2.80;99.90;;;;;;5081838;28;20211;-79
2021/01/10 01:37:30;;;;;;;17.55;9.50;;;2.70;99.90;;;;;;5082218;28;20176;-79
2021/01/10 01:39:58;;;;;;;15.05;9.75;;;2.70;99.90;;;;;;5080635;28;20227;-80
2021/01/10 01:42:26;;;;;;;14.63;7.78;;;2.70;99.90;;;;;;5082143;28;20227;-78
2021/01/10 01:44:54;;;;;;;14.35;8.13;;;2.70;99.90;;;;;;5081583;28;20219;-79
2021/01/10 01:47:21;;;;;;;15.30;7.63;;;2.70;99.90;;;;;;5081996;28;20172;-79
2021/01/10 01:49:49;;;;;;;18.63;8.43;;;2.70;99.90;;;;;;5080468;28;20206;-80
2021/01/10 01:52:17;;;;;;;14.20;7.60;;;2.70;99.90;;;;;;5081316;28;20206;-80
2021/01/10 01:54:44;;;;;;;24.58;9.43;;;2.70;99.90;;;;;;5078827;28;20212;-78
2021/01/10 01:57:12;;;;;;;15.65;10.80;;;2.70;99.90;;;;;;5080914;28;20176;-80
2021/01/10 01:59:40;;;;;;;15.43;7.97;;;2.70;99.90;;;;;;5088379;28;20215;-79
2021/01/10 02:02:08;;;;;;;12.30;7.13;;;2.70;99.90;;;;;;5089283;28;20200;-77
2021/01/10 02:04:44;;;;;;;14.32;7.75;;;2.70;99.90;;;;;;5091332;28;20223;-77
2021/01/10 02:07:17;;;;;;;19.13;11.50;;;2.70;99.90;;;;;;5089494;28;20187;-76
2021/01/10 02:09:47;;;;;;;8.65;6.80;;;2.70;99.90;;;;;;5082592;28;20176;-75
2021/01/10 02:12:17;;;;;;;11.75;8.25;;;2.60;99.90;;;;;;5074947;28;20244;-79
2021/01/10 02:14:58;;;;;;;12.63;6.18;;;2.70;99.90;;;;;;5079506;28;20224;-78
2021/01/10 02:17:27;;;;;;;13.63;7.18;;;2.60;99.90;;;;;;5078226;28;20187;-80
2021/01/10 02:20:00;;;;;;;14.73;8.18;;;2.60;99.90;;;;;;5079640;28;20196;-78
2021/01/10 02:22:32;;;;;;;12.27;6.68;;;2.60;99.90;;;;;;5081231;28;20174;-78
2021/01/10 02:25:00;;;;;;;14.73;8.32;;;2.60;99.90;;;;;;5085063;28;20208;-79
2021/01/10 02:27:28;;;;;;;11.65;8.80;;;2.70;99.90;;;;;;5091356;28;20196;-78
2021/01/10 02:29:55;;;;;;;15.70;8.55;;;2.70;99.90;;;;;;5092459;28;20168;-77
2021/01/10 02:32:24;;;;;;;19.70;10.35;;;2.70;99.90;;;;;;5086006;28;20199;-77
2021/01/10 02:34:53;;;;;;;11.52;6.32;;;2.70;99.90;;;;;;5094128;28;20207;-78
2021/01/10 02:37:33;;;;;;;17.02;9.18;;;2.60;99.90;;;;;;5092412;28;20184;-80
2021/01/10 02:40:11;;;;;;;14.88;7.82;;;2.60;99.90;;;;;;5084605;28;20231;-80
2021/01/10 02:42:45;;;;;;;11.05;7.22;;;2.50;99.90;;;;;;5082894;28;20175;-80
2021/01/10 02:45:17;;;;;;;20.67;10.30;;;2.50;99.90;;;;;;5078665;28;20219;-78
2021/01/10 02:47:44;;;;;;;21.90;7.95;;;2.50;99.90;;;;;;5079787;28;20171;-80
2021/01/10 02:50:17;;;;;;;16.70;8.05;;;2.50;99.90;;;;;;5079692;28;20202;-79
2021/01/10 02:52:46;;;;;;;19.35;8.63;;;2.50;99.90;;;;;;5078862;28;20199;-78
2021/01/10 02:55:15;;;;;;;19.33;11.35;;;2.50;99.90;;;;;;5079833;28;20232;-80
2021/01/10 02:57:45;;;;;;;15.88;7.80;;;2.50;99.90;;;;;;5080656;28;20184;-80
2021/01/10 03:00:14;;;;;;;19.48;8.52;;;2.50;99.90;;;;;;5079633;28;20160;-80
2021/01/10 03:02:42;;;;;;;15.60;8.43;;;2.60;99.90;;;;;;5081051;28;20179;-78
2021/01/10 03:05:11;;;;;;;15.48;9.38;;;2.60;99.90;;;;;;5082353;28;20223;-78
2021/01/10 03:07:41;;;;;;;19.88;10.50;;;2.50;99.90;;;;;;5082988;28;20237;-80
2021/01/10 03:10:12;;;;;;;19.23;9.18;;;2.50;99.90;;;;;;5086612;28;20176;-78
2021/01/10 03:12:41;;;;;;;14.73;8.63;;;2.60;99.90;;;;;;5083991;28;20196;-78
2021/01/10 03:15:10;;;;;;;15.60;6.20;;;2.60;99.90;;;;;;5083596;28;20242;-79
2021/01/10 03:17:45;;;;;;;18.17;6.90;;;2.60;99.90;;;;;;5081738;28;20256;-77
2021/01/10 03:20:14;;;;;;;12.80;7.00;;;2.50;99.90;;;;;;5082970;28;20193;-78
2021/01/10 03:22:42;;;;;;;12.27;6.50;;;2.50;99.90;;;;;;5082684;28;20556;-79
2021/01/10 03:25:10;;;;;;;10.90;6.25;;;2.50;99.90;;;;;;5084008;28;20223;-78
2021/01/10 03:27:38;;;;;;;13.63;7.80;;;2.40;99.90;;;;;;5088672;28;20184;-78
2021/01/10 03:30:09;;;;;;;16.27;9.48;;;2.40;99.90;;;;;;5085455;28;20176;-77
2021/01/10 03:32:36;;;;;;;11.88;6.68;;;2.40;99.90;;;;;;5086232;28;20662;-78
2021/01/10 03:35:05;;;;;;;19.20;11.40;;;2.40;99.90;;;;;;5092632;28;20208;-77
2021/01/10 03:37:34;;;;;;;16.85;7.72;;;2.50;99.90;;;;;;5087341;28;20223;-78
2021/01/10 03:40:02;;;;;;;12.85;8.35;;;2.50;99.90;;;;;;5084405;28;20187;-78
2021/01/10 03:42:29;;;;;;;21.63;10.50;;;2.40;99.90;;;;;;5094616;28;20192;-78
2021/01/10 03:44:57;;;;;;;15.95;6.63;;;2.40;99.90;;;;;;5097213;28;20203;-78
2021/01/10 03:47:25;;;;;;;14.00;9.05;;;2.40;99.90;;;;;;5088558;28;20196;-79
2021/01/10 03:49:52;;;;;;;8.07;5.20;;;2.40;99.90;;;;;;5099323;28;20222;-77
2021/01/10 03:52:20;;;;;;;11.00;6.18;;;2.40;99.90;;;;;;5089579;28;20216;-78
2021/01/10 03:54:47;;;;;;;12.30;7.13;;;2.40;99.90;;;;;;5083365;28;20223;-79
2021/01/10 03:57:14;;;;;;;8.88;5.30;;;2.40;99.90;;;;;;5087776;28;20182;-78
2021/01/10 03:59:42;;;;;;;13.68;9.45;;;2.40;99.90;;;;;;5088142;28;20210;-81
2021/01/10 04:02:09;;;;;;;15.32;8.10;;;2.40;99.90;;;;;;5091165;28;20200;-77
2021/01/10 04:04:37;;;;;;;18.83;10.05;;;2.40;99.90;;;;;;5094765;28;20219;-80
2021/01/10 04:07:07;;;;;;;14.02;8.10;;;2.40;99.90;;;;;;5094848;28;20651;-76
2021/01/10 04:09:35;;;;;;;9.95;5.88;;;2.40;99.90;;;;;;5094734;28;20172;-76
2021/01/10 04:12:03;;;;;;;8.43;6.70;;;2.40;99.90;;;;;;5093685;28;20192;-78
2021/01/10 04:14:30;;;;;;;13.40;7.82;;;2.30;99.90;;;;;;5092071;28;20669;-78
2021/01/10 04:16:58;;;;;;;13.77;6.53;;;2.30;99.90;;;;;;5083508;28;20180;-78
2021/01/10 04:19:25;;;;;;;6.85;4.78;;;2.20;99.90;;;;;;5081067;28;20180;-78
2021/01/10 04:21:53;;;;;;;13.30;7.15;;;2.30;99.90;;;;;;5078340;28;20191;-78
2021/01/10 04:24:20;;;;;;;7.82;5.53;;;2.30;99.90;;;;;;5079777;28;20200;-78
2021/01/10 04:26:50;;;;;;;11.02;7.55;;;2.20;99.90;;;;;;5079118;28;20632;-77
2021/01/10 04:29:19;;;;;;;7.07;5.30;;;2.30;99.90;;;;;;5080948;28;20188;-80
2021/01/10 04:31:47;;;;;;;14.25;7.57;;;2.30;99.90;;;;;;5080671;28;20183;-79
2021/01/10 04:34:17;;;;;;;8.88;4.30;;;2.20;99.90;;;;;;5080604;28;20216;-78
2021/01/10 04:36:44;;;;;;;7.88;6.57;;;2.20;99.90;;;;;;5079144;28;20188;-78
2021/01/10 04:39:15;;;;;;;10.90;4.60;;;2.10;99.90;;;;;;5078932;28;20189;-78
2021/01/10 04:41:44;;;;;;;9.30;7.05;;;2.10;99.90;;;;;;5080371;28;20252;-79
2021/01/10 04:44:13;;;;;;;8.05;4.80;;;2.10;99.90;;;;;;5081480;28;20267;-78
2021/01/10 04:46:41;;;;;;;8.73;3.97;;;2.00;99.90;;;;;;5079593;28;20195;-78
2021/01/10 04:49:10;;;;;;;16.17;6.63;;;2.00;99.90;;;;;;5081035;28;20542;-79
2021/01/10 04:51:39;;;;;;;12.45;6.82;;;2.00;99.90;;;;;;5080617;28;20188;-79
2021/01/10 04:54:08;;;;;;;10.18;3.83;;;2.00;99.90;;;;;;5078713;28;20196;-78
2021/01/10 04:56:37;;;;;;;9.00;5.50;;;1.90;99.90;;;;;;5078373;28;20670;-77
2021/01/10 04:59:05;;;;;;;9.00;6.47;;;1.90;99.90;;;;;;5078877;28;20658;-77
2021/01/10 05:01:36;;;;;;;8.32;5.43;;;1.90;99.90;;;;;;5079286;28;20184;-79
2021/01/10 05:04:05;;;;;;;8.02;6.60;;;1.90;99.90;;;;;;5079663;28;20196;-79
2021/01/10 05:06:36;;;;;;;6.50;4.22;;;1.90;99.90;;;;;;5078633;28;20625;-79
2021/01/10 05:09:05;;;;;;;10.25;6.25;;;1.80;99.90;;;;;;5077749;28;20218;-78
2021/01/10 05:11:33;;;;;;;8.95;4.88;;;1.70;99.90;;;;;;5080133;28;20662;-77
2021/01/10 05:14:03;;;;;;;6.38;3.92;;;1.60;99.90;;;;;;5076856;28;20219;-76
2021/01/10 05:16:32;;;;;;;5.40;3.80;;;1.60;99.90;;;;;;5079355;28;20179;-78
2021/01/10 05:19:01;;;;;;;10.75;5.13;;;1.50;99.90;;;;;;5078525;28;20208;-76
2021/01/10 05:21:29;;;;;;;12.98;7.00;;;1.50;99.90;;;;;;5077856;28;20181;-77
2021/01/10 05:23:58;;;;;;;10.20;6.18;;;1.50;99.90;;;;;;5081194;28;20203;-78
2021/01/10 05:26:32;;;;;;;12.50;6.00;;;1.50;99.90;;;;;;5081599;28;20207;-78
2021/01/10 05:29:08;;;;;;;7.47;5.22;;;1.60;99.90;;;;;;5082518;28;20180;-80
2021/01/10 05:31:39;;;;;;;10.35;5.00;;;1.60;99.90;;;;;;5091342;28;20194;-78
2021/01/10 05:34:08;;;;;;;6.50;4.85;;;1.60;99.90;;;;;;5092422;28;20235;-78
2021/01/10 05:36:38;;;;;;;6.40;4.22;;;1.60;99.90;;;;;;5080142;28;20199;-79
2021/01/10 05:39:17;;;;;;;6.10;4.93;;;1.70;99.90;;;;;;5078020;28;20203;-78
2021/01/10 05:41:50;;;;;;;11.52;6.07;;;1.70;99.90;;;;;;5080240;28;20180;-79
2021/01/10 05:44:19;;;;;;;8.18;4.22;;;1.70;99.90;;;;;;5080087;28;20211;-78
2021/01/10 05:46:48;;;;;;;10.75;6.32;;;1.70;99.90;;;;;;5080821;28;20215;-78
2021/01/10 05:49:21;;;;;;;7.85;3.92;;;1.70;99.90;;;;;;5079198;28;20188;-78
2021/01/10 05:51:51;;;;;;;14.15;7.18;;;1.80;99.90;;;;;;5079744;28;20654;-79
2021/01/10 05:54:35;;;;;;;7.57;4.10;;;1.70;1.00;;;;;;5080456;28;20220;-79
2021/01/10 05:57:04;;;;;;;11.48;5.72;;;1.70;99.90;;;;;;5078988;28;20340;-78
2021/01/10 05:59:35;;;;;;;8.90;5.55;;;1.70;99.90;;;;;;5076232;28;20555;-77
2021/01/10 06:02:04;;;;;;;7.75;5.65;;;1.60;1.00;;;;;;5078137;28;20442;-78
2021/01/10 06:04:33;;;;;;;10.75;5.15;;;1.60;1.00;;;;;;5076932;28;20212;-77
2021/01/10 06:07:00;;;;;;;9.13;5.65;;;1.60;1.00;;;;;;5077651;28;20183;-77
2021/01/10 06:09:28;;;;;;;7.65;4.55;;;1.60;1.00;;;;;;5077865;28;20187;-76
2021/01/10 06:11:55;;;;;;;7.88;4.30;;;1.60;99.90;;;;;;5080183;28;20192;-76
2021/01/10 06:14:26;;;;;;;6.63;4.32;;;1.50;1.00;;;;;;5091510;28;20223;-77
2021/01/10 06:16:56;;;;;;;8.63;5.30;;;1.50;1.00;;;;;;5092542;28;20203;-76
2021/01/10 06:19:27;;;;;;;10.43;5.68;;;1.50;1.00;;;;;;5094338;28;20218;-78
2021/01/10 06:21:59;;;;;;;5.88;4.32;;;1.50;99.90;;;;;;5086221;28;20182;-77
2021/01/10 06:24:33;;;;;;;9.27;4.18;;;1.40;1.00;;;;;;5079646;28;20219;-77
2021/01/10 06:27:04;;;;;;;12.48;5.47;;;1.50;99.90;;;;;;5079699;28;20556;-77
2021/01/10 06:29:39;;;;;;;9.95;4.30;;;1.50;99.90;;;;;;5088588;28;20192;-76
2021/01/10 06:32:11;;;;;;;6.25;4.00;;;1.50;99.90;;;;;;5092826;28;20198;-77
2021/01/10 06:34:41;;;;;;;8.27;4.85;;;1.50;99.90;;;;;;5092491;28;20227;-77
2021/01/10 06:37:09;;;;;;;10.05;4.70;;;1.60;99.90;;;;;;5089813;28;20179;-77
2021/01/10 06:39:44;;;;;;;9.20;6.03;;;1.60;99.90;;;;;;5088514;28;20192;-78
2021/01/10 06:42:13;;;;;;;8.93;5.85;;;1.60;99.90;;;;;;5067717;28;20272;-77
2021/01/10 06:44:43;;;;;;;6.30;3.63;;;1.60;99.90;;;;;;5070427;28;20201;-76
2021/01/10 06:47:20;;;;;;;6.40;3.10;;;1.70;99.90;;;;;;5072517;28;20169;-78
2021/01/10 06:49:47;;;;;;;6.13;4.38;;;1.70;99.90;;;;;;5073023;28;20168;-78
2021/01/10 06:52:16;;;;;;;6.78;4.45;;;1.80;99.90;;;;;;5067424;28;20605;-76
2021/01/10 06:54:45;;;;;;;5.93;5.15;;;1.80;99.90;;;;;;5065319;28;20258;-77
2021/01/10 06:57:13;;;;;;;6.63;4.45;;;1.80;99.90;;;;;;5067676;28;20228;-78
2021/01/10 07:00:10;;;;;;;6.80;5.25;;;1.80;99.90;;;;;;5069005;28;20188;-78
2021/01/10 07:03:08;;;;;;;5.07;4.18;;;1.70;99.90;;;;;;5066975;28;20192;-78
2021/01/10 07:06:06;;;;;;;5.88;5.07;;;1.70;99.90;;;;;;5047662;28;20220;-77
2021/01/10 07:08:35;;;;;;;9.52;4.85;;;1.70;99.90;;;;;;5075187;28;20184;-77
2021/01/10 07:11:45;;;;;;;8.60;4.18;;;1.60;99.90;;;;;;5092511;28;20202;-77
2021/01/10 07:14:26;;;;;;;8.50;4.50;;;1.70;99.90;;;;;;5090257;28;20365;-77
2021/01/10 07:17:17;;;;;;;6.90;5.10;;;1.60;99.90;;;;;;5091074;28;20196;-76
2021/01/10 07:19:51;;;;;;;11.30;5.60;;;1.60;99.90;;;;;;5090812;28;20188;-77
2021/01/10 07:22:39;;;;;;;8.18;5.70;;;1.50;99.90;;;;;;5084948;28;20242;-80
2021/01/10 07:25:34;;;;;;;7.53;4.07;;;1.60;99.90;;;;;;5088617;28;20267;-75
2021/01/10 07:28:39;;;;;;;7.22;5.30;;;1.60;99.90;;;;;;5093053;28;20203;-77
2021/01/10 07:31:18;;;;;;;4.45;3.83;;;1.60;99.90;;;;;;5093940;28;20200;-77
2021/01/10 07:33:48;;;;;;;6.32;5.38;;;1.60;99.90;;;;;;5092600;28;20712;-78
2021/01/10 07:36:17;;;;;;;7.15;4.10;;;1.60;99.90;;;;;;5093208;28;20195;-78
2021/01/10 07:38:44;;;;;;;5.35;3.30;;;1.50;99.90;;;;;;5093327;28;20195;-78
2021/01/10 07:41:22;;;;;;;7.63;4.80;;;1.50;70.90;;;;;;5077853;28;20191;-77
2021/01/10 07:43:51;;;;;;;7.57;4.15;;;1.60;99.90;;;;;;5075239;28;20187;-76
2021/01/10 07:47:00;;;;;;;5.25;3.67;;;1.50;99.90;;;;;;5091973;28;20207;-77
2021/01/10 07:49:33;;;;;;;8.45;5.95;;;1.60;1.00;;;;;;5093381;28;20176;-76
2021/01/10 07:52:01;;;;;;;12.30;3.70;;;1.60;99.90;;;;;;5094717;28;20184;-77
2021/01/10 07:54:52;;;;;;;7.85;5.85;;;1.60;99.90;;;;;;5096353;28;20216;-78
2021/01/10 07:57:33;;;;;;;6.20;4.45;;;1.70;99.90;;;;;;5095903;28;20192;-77
2021/01/10 08:00:16;;;;;;;8.48;4.40;;;1.60;99.90;;;;;;5100092;28;20220;-78
2021/01/10 08:02:53;;;;;;;6.55;3.83;;;1.60;99.90;;;;;;5100124;28;20180;-76
2021/01/10 08:05:22;;;;;;;10.27;7.15;;;1.60;99.90;;;;;;5091857;28;20210;-77
2021/01/10 08:07:53;;;;;;;5.65;5.15;;;1.60;99.90;;;;;;5088526;28;20192;-77
2021/01/10 08:10:22;;;;;;;6.43;4.60;;;1.70;99.90;;;;;;5084692;28;20535;-77
2021/01/10 08:12:49;;;;;;;4.30;3.83;;;1.70;99.90;;;;;;5084991;28;20220;-76
2021/01/10 08:15:18;;;;;;;6.25;3.30;;;1.70;99.90;;;;;;5083257;28;20218;-77
2021/01/10 08:17:46;;;;;;;9.57;6.07;;;1.70;99.90;;;;;;5085309;28;20180;-76
2021/01/10 08:20:14;;;;;;;8.57;4.10;;;1.60;99.90;;;;;;5082865;28;20604;-76
2021/01/10 08:22:42;;;;;;;12.20;4.32;;;1.60;99.90;;;;;;5085848;28;20172;-75
2021/01/10 08:25:21;;;;;;;11.95;4.53;;;1.60;99.90;;;;;;5086048;28;20197;-77
2021/01/10 08:27:49;;;;;;;7.35;6.35;;;1.60;99.90;;;;;;5083537;28;20295;-82
2021/01/10 08:30:17;;;;;;;6.55;3.92;;;1.50;99.90;;;;;;5085182;28;20242;-77
2021/01/10 08:32:45;;;;;;;8.18;5.82;;;1.50;99.90;;;;;;5085939;28;20188;-78
2021/01/10 08:35:21;;;;;;;4.93;4.38;;;1.60;99.90;;;;;;5087022;28;20230;-77
2021/01/10 08:37:49;;;;;;;7.03;4.43;;;1.70;99.90;;;;;;5086351;28;20179;-79
2021/01/10 08:40:16;;;;;;;8.52;6.40;;;1.60;99.90;;;;;;5080841;28;20596;-79
2021/01/10 08:42:44;;;;;;;11.85;6.07;;;1.60;99.90;;;;;;5081581;28;20196;-78
2021/01/10 08:45:17;;;;;;;6.05;3.65;;;1.60;99.90;;;;;;5081377;28;20212;-79
2021/01/10 08:47:46;;;;;;;6.88;4.20;;;1.60;99.90;;;;;;5083620;28;20188;-79
2021/01/10 08:50:14;;;;;;;7.18;2.92;;;1.60;99.90;;;;;;5084338;28;20191;-80
2021/01/10 08:52:56;;;;;;;8.20;4.75;;;1.60;99.90;;;;;;5086818;28;20552;-78
2021/01/10 08:55:34;;;;;;;9.38;6.13;;;1.60;99.90;;;;;;5096429;28;20215;-79
2021/01/10 08:58:04;;;;;;;11.43;7.55;;;1.60;99.90;;;;;;5093527;28;20233;-77
2021/01/10 09:00:32;;;;;;;8.57;4.82;;;1.60;99.90;;;;;;5098562;28;20179;-80
2021/01/10 09:03:13;;;;;;;7.28;4.18;;;1.50;99.90;;;;;;5096843;28;20172;-81
2021/01/10 09:05:40;;;;;;;9.43;5.93;;;1.50;99.90;;;;;;5093118;28;20203;-78
2021/01/10 09:08:18;;;;;;;10.25;6.45;;;1.40;99.90;;;;;;5087333;28;20202;-77
2021/01/10 09:10:56;;;;;;;9.90;5.80;;;1.40;99.90;;;;;;5085523;28;20191;-78
2021/01/10 09:13:26;;;;;;;8.65;4.93;;;1.30;99.90;;;;;;5085903;28;20239;-79
2021/01/10 09:15:55;;;;;;;6.25;3.60;;;1.30;99.90;;;;;;5091002;28;20215;-80
2021/01/10 09:18:28;;;;;;;3.35;3.05;;;1.30;99.90;;;;;;5091348;28;20192;-81
2021/01/10 09:20:59;;;;;;;7.65;3.90;;;1.40;99.90;;;;;;5090661;28;20192;-80
2021/01/10 09:23:28;;;;;;;7.60;4.85;;;1.40;99.90;;;;;;5089011;28;20184;-80
2021/01/10 09:25:56;;;;;;;9.00;5.10;;;1.30;99.90;;;;;;5086552;28;20306;-83
2021/01/10 09:28:25;;;;;;;10.25;6.80;;;1.30;99.90;;;;;;5085458;28;20184;-83
2021/01/10 09:30:54;;;;;;;8.15;5.32;;;1.40;99.90;;;;;;5094419;28;20180;-81
2021/01/10 09:33:23;;;;;;;7.82;5.30;;;1.50;99.90;;;;;;5095268;28;20206;-82
2021/01/10 09:35:52;;;;;;;6.43;3.88;;;1.40;99.90;;;;;;5092018;28;20207;-83
2021/01/10 09:38:21;;;;;;;9.05;5.55;;;1.50;99.90;;;;;;5088841;28;20208;-82
2021/01/10 09:41:06;;;;;;;7.65;5.65;;;1.60;99.90;;;;;;5093611;28;20176;-79
2021/01/10 09:43:39;;;;;;;7.97;5.00;;;1.80;99.90;;;;;;5090684;28;20203;-81
2021/01/10 09:46:37;;;;;;;10.60;6.82;;;1.90;99.90;;;;;;5064398;28;20212;-81
2021/01/10 09:49:07;;;;;;;7.25;4.63;;;1.90;1.00;;;;;;5003625;28;20198;-80
2021/01/10 09:51:38;;;;;;;7.82;6.38;;;2.00;42.10;;;;;;5046257;28;20247;-79
2021/01/10 09:54:16;;;;;;;8.45;4.82;;;2.00;1.00;;;;;;5061944;28;20201;-80
2021/01/10 09:56:45;;;;;;;6.85;4.15;;;2.00;1.00;;;;;;5059354;28;20193;-80
2021/01/10 09:59:36;;;;;;;11.40;6.07;;;2.20;99.90;;;;;;5058645;28;20729;-77
2021/01/10 10:02:13;;;;;;;8.52;5.35;;;2.20;99.90;;;;;;5059458;28;20172;-80
2021/01/10 10:04:45;;;;;;;6.30;3.55;;;2.20;99.90;;;;;;5057897;28;20208;-79
2021/01/10 10:07:14;;;;;;;8.93;4.47;;;2.30;99.90;;;;;;5059123;28;20188;-78
2021/01/10 10:09:45;;;;;;;7.47;4.55;;;2.20;99.90;;;;;;5056936;28;20283;-78
2021/01/10 10:12:14;;;;;;;3.92;3.30;;;2.10;99.90;;;;;;5058741;28;20277;-79
2021/01/10 10:14:54;;;;;;;5.63;4.78;;;2.10;99.90;;;;;;5060160;28;20232;-78
2021/01/10 10:17:23;;;;;;;5.88;4.47;;;2.00;99.90;;;;;;5058887;28;20173;-78
2021/01/10 10:19:50;;;;;;;8.05;6.20;;;2.10;99.90;;;;;;5057518;28;20188;-78
2021/01/10 10:22:25;;;;;;;8.93;5.60;;;2.30;99.90;;;;;;5055768;28;20207;-79
2021/01/10 10:24:54;;;;;;;8.25;4.35;;;2.40;99.90;;;;;;5057843;28;20291;-78
2021/01/10 10:27:23;;;;;;;13.25;6.68;;;2.50;99.90;;;;;;5072579;28;20210;-78
2021/01/10 10:29:52;;;;;;;7.40;4.35;;;2.60;99.90;;;;;;5068682;28;20602;-78
2021/01/10 10:32:21;;;;;;;8.98;5.78;;;2.70;99.90;;;;;;5073640;28;20188;-77
2021/01/10 10:34:49;;;;;;;9.38;4.10;;;2.70;99.90;;;;;;5063717;28;20217;-78
2021/01/10 10:37:17;;;;;;;7.75;5.10;;;2.50;99.90;;;;;;5063400;28;20200;-80
2021/01/10 10:39:45;;;;;;;6.55;4.80;;;2.50;99.90;;;;;;5060153;28;20216;-81
2021/01/10 10:42:14;;;;;;;9.18;5.18;;;2.30;99.90;;;;;;5064009;28;20286;-81
2021/01/10 10:44:42;;;;;;;10.48;6.68;;;2.40;99.90;;;;;;5064845;28;20212;-80
2021/01/10 10:47:14;;;;;;;4.57;4.18;;;2.40;99.90;;;;;;5085077;28;20265;-81
2021/01/10 10:49:43;;;;;;;6.28;5.50;;;2.50;99.90;;;;;;5082873;28;20189;-81
2021/01/10 10:52:13;;;;;;;8.57;5.00;;;2.70;99.90;;;;;;5070545;28;20203;-81
2021/01/10 10:54:41;;;;;;;5.47;3.58;;;3.10;99.90;;;;;;5068314;28;20671;-81
2021/01/10 10:57:09;;;;;;;7.00;4.47;;;3.30;99.90;;;;;;5077538;28;20206;-80
2021/01/10 10:59:38;;;;;;;9.68;4.85;;;3.30;99.90;;;;;;5091623;28;20180;-80
2021/01/10 11:02:06;;;;;;;9.30;6.93;;;3.20;99.90;;;;;;5084279;28;20196;-81
2021/01/10 11:04:34;;;;;;;5.82;4.88;;;3.00;99.90;;;;;;5079472;28;20216;-81
2021/01/10 11:07:01;;;;;;;12.95;6.65;;;2.80;99.90;;;;;;5083175;28;20226;-81
2021/01/10 11:09:29;;;;;;;4.88;3.90;;;2.80;99.90;;;;;;5081170;28;20191;-82
2021/01/10 11:11:56;;;;;;;7.60;5.53;;;2.80;99.90;;;;;;5080052;28;20202;-81
2021/01/10 11:14:23;;;;;;;8.13;4.35;;;2.70;99.90;;;;;;5080387;28;20212;-83
2021/01/10 11:16:52;;;;;;;7.75;4.22;;;2.60;99.90;;;;;;5083836;28;20240;-82
2021/01/10 11:19:21;;;;;;;6.30;4.78;;;2.60;99.90;;;;;;5085156;28;20192;-81
2021/01/10 11:21:51;;;;;;;8.40;3.70;;;2.50;99.90;;;;;;5084562;28;20246;-84
2021/01/10 11:24:19;;;;;;;7.55;3.42;;;2.40;99.90;;;;;;5082527;28;20206;-80
2021/01/10 11:26:47;;;;;;;6.57;3.90;;;2.50;99.90;;;;;;5090156;28;20184;-80
2021/01/10 11:29:16;;;;;;;7.10;4.50;;;2.40;99.90;;;;;;5089544;28;20196;-82
2021/01/10 11:31:43;;;;;;;4.93;3.53;;;2.40;99.90;;;;;;5080086;28;20192;-81
2021/01/10 11:34:13;;;;;;;5.30;4.38;;;2.40;99.90;;;;;;5083274;28;20204;-83
2021/01/10 11:36:45;;;;;;;8.55;5.88;;;2.60;99.90;;;;;;5084639;28;20203;-81
2021/01/10 11:39:14;;;;;;;7.15;4.85;;;2.50;99.90;;;;;;5084830;28;20180;-82
2021/01/10 11:41:45;;;;;;;6.55;4.65;;;2.40;99.90;;;;;;5084421;28;20230;-81
2021/01/10 11:44:13;;;;;;;7.20;5.28;;;2.30;99.90;;;;;;5083185;28;20199;-81
2021/01/10 11:46:42;;;;;;;7.00;4.38;;;2.30;99.90;;;;;;5083237;28;20636;-86
2021/01/10 11:49:17;;;;;;;6.78;4.10;;;2.30;99.90;;;;;;5084054;28;20556;-82
2021/01/10 11:51:45;;;;;;;5.50;3.38;;;2.40;99.90;;;;;;5088792;28;20188;-82
2021/01/10 11:54:15;;;;;;;9.75;3.47;;;2.40;99.90;;;;;;5088979;28;20200;-82
2021/01/10 11:56:43;;;;;;;10.73;6.60;;;2.40;99.90;;;;;;5088686;28;20176;-81
2021/01/10 11:59:14;;;;;;;6.47;4.65;;;2.60;99.90;;;;;;5087741;28;20244;-81
2021/01/10 12:01:48;;;;;;;5.00;4.25;;;2.60;99.90;;;;;;5092452;28;20194;-83
2021/01/10 12:04:16;;;;;;;7.57;4.93;;;2.50;99.90;;;;;;5085666;28;20184;-78
2021/01/10 12:06:49;;;;;;;4.45;3.15;;;2.30;99.90;;;;;;5086867;28;20243;-78
2021/01/10 12:09:19;;;;;;;10.00;6.05;;;2.30;99.90;;;;;;5084093;28;20278;-79
2021/01/10 12:11:47;;;;;;;7.07;5.10;;;2.40;99.90;;;;;;5083610;28;20196;-80
2021/01/10 12:14:15;;;;;;;7.47;4.25;;;2.40;99.90;;;;;;5085481;28;20237;-80
2021/01/10 12:16:43;;;;;;;5.68;3.22;;;2.30;99.90;;;;;;5083599;28;20273;-81
2021/01/10 12:19:10;;;;;;;7.13;5.57;;;2.20;99.90;;;;;;5068595;28;20219;-81
2021/01/10 12:21:42;;;;;;;11.48;5.10;;;2.10;99.90;;;;;;5067515;28;20181;-83
2021/01/10 12:24:11;;;;;;;4.18;3.78;;;2.20;99.90;;;;;;5081030;28;20243;-81
2021/01/10 12:26:39;;;;;;;5.07;3.85;;;2.40;99.90;;;;;;5084560;28;20168;-79
2021/01/10 12:29:07;;;;;;;5.90;4.18;;;2.70;99.90;;;;;;5087278;28;20188;-79
2021/01/10 12:31:34;;;;;;;5.93;2.85;;;2.70;99.90;;;;;;5085698;28;20182;-81
2021/01/10 12:34:02;;;;;;;7.00;4.43;;;2.80;99.90;;;;;;5084303;28;20674;-79
2021/01/10 12:36:35;;;;;;;6.68;5.80;;;2.90;99.90;;;;;;5085628;28;20595;-79
2021/01/10 12:39:04;;;;;;;9.45;3.75;;;2.90;99.90;;;;;;5083880;28;20195;-78
2021/01/10 12:41:35;;;;;;;3.38;2.47;;;2.70;99.90;;;;;;5067069;28;20215;-78
2021/01/10 12:44:08;;;;;;;5.10;2.90;;;2.80;99.90;;;;;;5090278;28;20635;-79
2021/01/10 12:46:39;;;;;;;7.15;3.45;;;2.60;99.90;;;;;;5091889;28;20215;-81
2021/01/10 12:49:08;;;;;;;7.45;4.50;;;2.60;99.90;;;;;;5092335;28;20188;-80
2021/01/10 12:51:39;;;;;;;6.55;3.75;;;2.70;99.90;;;;;;5089867;28;20199;-79
2021/01/10 12:54:08;;;;;;;5.63;3.95;;;2.70;99.90;;;;;;5086962;28;20188;-83
2021/01/10 12:56:35;;;;;;;4.25;3.83;;;2.80;99.90;;;;;;5086068;28;20214;-81
2021/01/10 12:59:05;;;;;;;7.60;4.15;;;2.70;99.90;;;;;;5084103;28;20207;-80
2021/01/10 13:01:35;;;;;;;10.68;6.15;;;2.60;99.90;;;;;;5085998;28;20215;-81
2021/01/10 13:04:04;;;;;;;4.75;2.45;;;2.60;99.90;;;;;;5083888;28;20275;-81
2021/01/10 13:06:35;;;;;;;4.45;4.00;;;2.60;99.90;;;;;;5084574;28;20192;-80
2021/01/10 13:09:02;;;;;;;5.50;4.05;;;2.60;99.90;;;;;;5082089;28;20195;-80
2021/01/10 13:11:30;;;;;;;6.75;5.10;;;2.50;99.90;;;;;;5082281;28;20581;-80